Terminal Aerodrome Forecast
Issued by NWS Tulsa, OK

Home | Current Version | Previous Version | Text Only | Print | Product List | Glossary On
Versions: 1 2 3 4 5 6 7 8 9 10 11 12 13 14
602
FTUS44 KTSA 040537
TAFTUL
TAF
KTUL 040537Z 0406/0506 11005KT 2SM -RA BR SCT004 OVC007
      TEMPO 0409/0413 1SM BR OVC004
     FM041600 31005KT 2SM BR OVC007
     FM041800 34007KT P6SM BKN015
     FM042000 35006KT P6SM SKC=

USA.gov is the U.S. government's official web portal to all federal, state and local government web resources and services.